createdAt,value
2018-01-28T00:01:26.087Z,6.87
2018-01-28T00:03:52.361Z,6.67
2018-01-28T00:06:19.228Z,7.00
2018-01-28T00:08:45.686Z,6.17
2018-01-28T00:11:11.840Z,6.10
2018-01-28T00:13:37.989Z,6.40
2018-01-28T00:16:04.273Z,6.40
2018-01-28T00:18:32.061Z,6.60
2018-01-28T00:20:59.174Z,6.90
2018-01-28T00:23:25.557Z,6.73
2018-01-28T00:25:52.590Z,6.60
2018-01-28T00:28:19.596Z,7.17
2018-01-28T00:30:45.793Z,6.13
2018-01-28T00:33:12.358Z,7.53
2018-01-28T00:35:38.750Z,6.30
2018-01-28T00:38:05.077Z,6.60
2018-01-28T00:40:31.453Z,6.80
2018-01-28T00:42:59.149Z,6.27
2018-01-28T00:45:26.266Z,6.97
2018-01-28T00:47:52.453Z,6.80
2018-01-28T00:50:18.810Z,7.37
2018-01-28T00:52:45.093Z,6.70
2018-01-28T00:55:11.378Z,5.83
2018-01-28T00:57:37.687Z,6.17
2018-01-28T01:00:04.025Z,6.23
2018-01-28T01:02:30.336Z,6.17
2018-01-28T01:04:56.645Z,6.30
2018-01-28T01:07:22.890Z,6.40
2018-01-28T01:09:49.189Z,5.93
2018-01-28T01:12:15.463Z,5.90
2018-01-28T01:14:41.661Z,5.80
2018-01-28T01:17:07.887Z,5.63
2018-01-28T01:19:34.223Z,5.57
2018-01-28T01:22:00.585Z,4.93
2018-01-28T01:24:26.868Z,6.07
2018-01-28T01:26:53.145Z,5.17
2018-01-28T01:29:20.113Z,5.73
2018-01-28T01:31:47.045Z,5.07
2018-01-28T01:34:13.252Z,6.20
2018-01-28T01:36:39.521Z,5.83
2018-01-28T01:39:05.736Z,6.17
2018-01-28T01:41:32.824Z,5.53
2018-01-28T01:43:59.062Z,5.97
2018-01-28T01:46:25.218Z,6.17
2018-01-28T01:48:52.309Z,5.70
2018-01-28T01:51:18.520Z,5.80
2018-01-28T01:53:45.761Z,5.53
2018-01-28T01:56:12.773Z,6.00
2018-01-28T01:58:39.276Z,6.00
2018-01-28T02:01:05.693Z,6.33
2018-01-28T02:03:32.097Z,5.30
2018-01-28T02:05:59.074Z,6.30
2018-01-28T02:08:25.251Z,6.37
2018-01-28T02:10:51.624Z,6.53
2018-01-28T02:13:17.801Z,5.87
2018-01-28T02:15:45.051Z,6.37
2018-01-28T02:18:11.308Z,6.33
2018-01-28T02:20:38.329Z,6.60
2018-01-28T02:23:04.675Z,5.97
2018-01-28T02:25:31.637Z,7.30
2018-01-28T02:27:58.575Z,6.33
2018-01-28T02:30:25.878Z,6.90
2018-01-28T02:32:52.221Z,6.10
2018-01-28T02:35:18.515Z,6.50
2018-01-28T02:37:44.725Z,6.30
2018-01-28T02:40:11.102Z,6.20
2018-01-28T02:42:37.478Z,6.30
2018-01-28T02:45:04.687Z,5.30
2018-01-28T02:47:30.900Z,5.17
2018-01-28T02:49:57.192Z,5.67
2018-01-28T02:52:23.579Z,5.87
2018-01-28T02:54:51.231Z,6.07
2018-01-28T02:57:17.571Z,5.70
2018-01-28T02:59:45.414Z,5.67
2018-01-28T03:02:11.678Z,6.27
2018-01-28T03:04:38.923Z,5.40
2018-01-28T03:07:05.962Z,5.33
2018-01-28T03:09:32.196Z,6.33
2018-01-28T03:11:58.493Z,5.80
2018-01-28T03:14:25.334Z,6.03
2018-01-28T03:16:51.669Z,5.63
2018-01-28T03:19:17.919Z,5.67
2018-01-28T03:21:45.656Z,5.33
2018-01-28T03:24:11.894Z,5.63
2018-01-28T03:26:38.169Z,6.50
2018-01-28T03:29:04.544Z,6.50
2018-01-28T03:31:30.828Z,5.90
2018-01-28T03:33:57.134Z,5.80
2018-01-28T03:36:24.125Z,4.70
2018-01-28T03:38:50.431Z,6.37
2018-01-28T03:41:16.922Z,5.83
2018-01-28T03:43:45.308Z,5.27
2018-01-28T03:46:11.558Z,6.20
2018-01-28T03:48:38.524Z,6.53
2018-01-28T03:51:04.776Z,6.10
2018-01-28T03:53:31.219Z,6.87
2018-01-28T03:55:57.558Z,6.27
2018-01-28T03:58:24.479Z,6.70
2018-01-28T04:00:50.815Z,6.90
2018-01-28T04:03:17.006Z,6.77
2018-01-28T04:05:43.353Z,6.30
2018-01-28T04:08:09.709Z,6.40
2018-01-28T04:10:36.029Z,6.63
2018-01-28T04:13:02.269Z,5.83
2018-01-28T04:15:28.492Z,5.80
2018-01-28T04:17:55.520Z,6.77
2018-01-28T04:20:22.054Z,6.03
2018-01-28T04:22:48.632Z,5.53
2018-01-28T04:25:15.708Z,6.13
2018-01-28T04:27:42.231Z,5.67
2018-01-28T04:30:08.605Z,5.70
2018-01-28T04:32:34.981Z,6.30
2018-01-28T04:35:02.014Z,5.27
2018-01-28T04:37:29.301Z,6.30
2018-01-28T04:39:55.534Z,6.77
2018-01-28T04:42:21.921Z,6.10
2018-01-28T04:44:48.094Z,6.00
2018-01-28T04:47:14.436Z,5.80
2018-01-28T04:49:40.621Z,4.67
2018-01-28T04:52:06.999Z,4.47
2018-01-28T04:54:33.383Z,4.30
2018-01-28T04:56:59.666Z,4.70
2018-01-28T04:59:26.758Z,3.43
2018-01-28T05:02:03.889Z,3.10
2018-01-28T05:04:30.344Z,3.60
2018-01-28T05:06:56.662Z,2.53
2018-01-28T05:09:23.810Z,2.50
2018-01-28T05:11:50.063Z,2.20
2018-01-28T05:14:17.062Z,2.03
2018-01-28T05:16:43.368Z,1.67
2018-01-28T05:19:09.838Z,1.40
2018-01-28T05:21:36.256Z,1.57
2018-01-28T05:24:02.613Z,1.53
2018-01-28T05:26:29.230Z,1.80
2018-01-28T05:28:55.569Z,1.47
2018-01-28T05:31:21.842Z,1.60
2018-01-28T05:33:48.214Z,1.47
2018-01-28T05:36:14.443Z,1.30
2018-01-28T05:38:40.887Z,0.93
2018-01-28T05:41:07.254Z,1.20
2018-01-28T05:43:33.491Z,1.00
2018-01-28T05:45:59.862Z,0.97
2018-01-28T05:48:26.196Z,0.83
2018-01-28T05:50:52.637Z,0.80
2018-01-28T05:53:19.667Z,0.90
2018-01-28T05:55:45.971Z,0.60
2018-01-28T05:58:12.394Z,1.00
2018-01-28T06:00:38.863Z,0.90
2018-01-28T06:03:05.228Z,0.80
2018-01-28T06:05:32.486Z,0.70
2018-01-28T06:07:59.507Z,1.07
2018-01-28T06:10:25.857Z,0.90
2018-01-28T06:12:53.125Z,0.97
2018-01-28T06:15:19.393Z,0.90
2018-01-28T06:17:46.026Z,0.93
2018-01-28T06:20:12.229Z,1.00
2018-01-28T06:22:38.581Z,1.13
2018-01-28T06:25:04.863Z,1.10
2018-01-28T06:27:31.193Z,1.13
2018-01-28T06:29:58.295Z,1.37
2018-01-28T06:32:24.669Z,1.60
2018-01-28T06:34:51.721Z,1.40
2018-01-28T06:37:17.970Z,1.10
2018-01-28T06:39:44.422Z,1.33
2018-01-28T06:42:10.735Z,1.23
2018-01-28T06:44:37.194Z,1.37
2018-01-28T06:47:03.616Z,1.53
2018-01-28T06:49:29.785Z,1.40
2018-01-28T06:51:56.840Z,1.80
2018-01-28T06:54:23.173Z,1.30
2018-01-28T06:56:49.654Z,1.27
2018-01-28T06:59:15.886Z,1.47
2018-01-28T07:01:43.138Z,1.50
2018-01-28T07:04:09.335Z,1.67
2018-01-28T07:06:35.639Z,1.60
2018-01-28T07:09:01.919Z,1.83
2018-01-28T07:11:28.143Z,1.70
2018-01-28T07:13:54.526Z,1.60
2018-01-28T07:16:20.720Z,1.80
2018-01-28T07:18:47.107Z,1.33
2018-01-28T07:21:13.367Z,2.10
2018-01-28T07:23:40.292Z,1.50
2018-01-28T07:26:06.649Z,1.40
2018-01-28T07:28:34.199Z,1.90
2018-01-28T07:31:01.950Z,1.10
2018-01-28T07:33:28.231Z,1.60
2018-01-28T07:35:54.538Z,1.40
2018-01-28T07:38:20.798Z,1.10
2018-01-28T07:40:47.015Z,1.10
2018-01-28T07:43:13.287Z,1.53
2018-01-28T07:45:39.709Z,1.57
2018-01-28T07:48:06.312Z,1.40
2018-01-28T07:50:32.743Z,1.40
2018-01-28T07:52:59.338Z,1.27
2018-01-28T07:55:26.416Z,1.47
2018-01-28T07:57:53.398Z,1.20
2018-01-28T08:00:19.863Z,1.00
2018-01-28T08:02:46.389Z,0.63
2018-01-28T08:05:12.813Z,1.10
2018-01-28T08:07:39.199Z,1.03
2018-01-28T08:10:11.460Z,0.93
2018-01-28T08:12:38.645Z,1.20
2018-01-28T08:15:05.188Z,0.93
2018-01-28T08:17:31.471Z,1.00
2018-01-28T08:19:57.729Z,1.20
2018-01-28T08:22:24.028Z,0.90
2018-01-28T08:24:50.318Z,0.90
2018-01-28T08:27:17.455Z,0.60
2018-01-28T08:29:44.311Z,0.83
2018-01-28T08:32:10.610Z,0.83
2018-01-28T08:34:36.902Z,0.60
2018-01-28T08:37:03.936Z,0.70
2018-01-28T08:42:25.487Z,1.10
2018-01-28T08:44:51.920Z,1.00
2018-01-28T08:47:18.221Z,1.00
2018-01-28T08:49:44.491Z,0.60
2018-01-28T08:52:10.872Z,0.50
2018-01-28T08:54:37.241Z,0.50
2018-01-28T08:57:03.534Z,0.50
2018-01-28T08:59:30.623Z,0.40
2018-01-28T09:01:56.872Z,0.50
2018-01-28T09:04:23.126Z,0.60
2018-01-28T09:06:49.316Z,0.50
2018-01-28T09:09:15.697Z,0.40
2018-01-28T09:11:42.748Z,0.40
2018-01-28T09:14:09.876Z,0.40
2018-01-28T09:16:36.174Z,0.40
2018-01-28T09:19:02.420Z,0.40
2018-01-28T09:21:28.657Z,0.80
2018-01-28T09:23:54.948Z,0.20
2018-01-28T09:26:21.403Z,0.20
2018-01-28T09:28:47.844Z,0.30
2018-01-28T09:31:14.279Z,0.20
2018-01-28T09:33:40.858Z,0.30
2018-01-28T09:36:07.426Z,0.40
2018-01-28T09:38:33.708Z,0.30
2018-01-28T09:41:00.710Z,0.23
2018-01-28T09:43:27.019Z,0.30
2018-01-28T09:45:53.638Z,0.30
2018-01-28T09:48:19.875Z,0.30
2018-01-28T09:50:46.096Z,0.30
2018-01-28T09:53:12.485Z,0.53
2018-01-28T09:55:38.764Z,0.40
2018-01-28T09:58:05.077Z,0.20
2018-01-28T10:00:31.446Z,0.40
2018-01-28T10:02:57.996Z,0.30
2018-01-28T10:05:24.407Z,0.30
2018-01-28T10:07:50.751Z,0.50
2018-01-28T10:10:17.047Z,0.27
2018-01-28T10:12:43.480Z,0.30
2018-01-28T10:15:09.734Z,0.33
2018-01-28T10:17:35.991Z,0.30
2018-01-28T10:20:03.009Z,0.30
2018-01-28T10:22:29.383Z,0.30
2018-01-28T10:24:55.643Z,0.50
2018-01-28T10:27:21.958Z,0.40
2018-01-28T10:29:48.195Z,0.40
2018-01-28T10:32:14.448Z,0.40
2018-01-28T10:34:40.862Z,0.43
2018-01-28T10:37:07.204Z,0.30
2018-01-28T10:39:33.473Z,0.40
2018-01-28T10:42:00.515Z,0.40
2018-01-28T10:44:27.621Z,0.70
2018-01-28T10:46:54.683Z,0.77
2018-01-28T10:49:21.226Z,0.60
2018-01-28T10:51:47.432Z,0.50
2018-01-28T10:54:13.647Z,0.33
2018-01-28T10:56:39.950Z,0.30
2018-01-28T10:59:07.354Z,0.47
2018-01-28T11:01:33.759Z,0.50
2018-01-28T11:04:00.098Z,0.50
2018-01-28T11:06:26.444Z,0.50
2018-01-28T11:08:52.797Z,0.90
2018-01-28T11:11:19.807Z,1.07
2018-01-28T11:13:46.034Z,0.67
2018-01-28T11:16:12.333Z,0.70
2018-01-28T11:18:38.759Z,0.53
2018-01-28T11:21:05.191Z,0.40
2018-01-28T11:23:31.666Z,0.53
2018-01-28T11:25:57.842Z,0.63
2018-01-28T11:28:24.122Z,0.67
2018-01-28T11:30:50.544Z,0.83
2018-01-28T11:33:16.905Z,0.90
2018-01-28T11:35:44.022Z,0.53
2018-01-28T11:38:10.293Z,0.60
2018-01-28T11:40:36.618Z,0.57
2018-01-28T11:43:03.730Z,0.57
2018-01-28T11:45:30.139Z,0.67
2018-01-28T11:47:56.574Z,0.60
2018-01-28T11:50:22.827Z,0.50
2018-01-28T11:52:49.758Z,0.60
2018-01-28T11:55:16.254Z,0.60
2018-01-28T11:57:42.584Z,0.70
2018-01-28T12:00:08.960Z,0.70
2018-01-28T12:02:35.411Z,1.00
2018-01-28T12:05:01.915Z,1.00
2018-01-28T12:07:28.189Z,0.60
2018-01-28T12:09:55.461Z,0.70
2018-01-28T12:12:21.811Z,0.80
2018-01-28T12:14:48.219Z,0.40
2018-01-28T12:17:14.557Z,1.00
2018-01-28T12:19:40.914Z,1.30
2018-01-28T12:22:07.207Z,0.60
2018-01-28T12:24:33.677Z,1.30
2018-01-28T12:26:59.992Z,1.20
2018-01-28T12:29:26.224Z,0.83
2018-01-28T12:31:52.462Z,0.40
2018-01-28T12:34:18.747Z,1.00
2018-01-28T12:36:45.049Z,0.60
2018-01-28T12:39:12.737Z,0.60
2018-01-28T12:41:39.892Z,0.50
2018-01-28T12:44:06.221Z,0.83
2018-01-28T12:46:32.555Z,0.60
2018-01-28T12:48:58.965Z,0.67
2018-01-28T12:51:26.293Z,0.70
2018-01-28T12:53:52.712Z,0.60
2018-01-28T12:56:19.795Z,0.70
2018-01-28T12:58:46.446Z,0.80
2018-01-28T13:01:12.930Z,0.50
2018-01-28T13:03:39.572Z,0.70
2018-01-28T13:06:05.814Z,0.80
2018-01-28T13:08:32.814Z,0.70
2018-01-28T13:10:59.127Z,0.80
2018-01-28T13:13:25.388Z,0.70
2018-01-28T13:15:51.961Z,0.80
2018-01-28T13:18:18.961Z,0.70
2018-01-28T13:20:45.210Z,0.60
2018-01-28T13:23:11.443Z,0.60
2018-01-28T13:25:38.630Z,0.90
2018-01-28T13:28:05.030Z,0.80
2018-01-28T13:30:32.091Z,0.60
2018-01-28T13:32:59.197Z,0.70
2018-01-28T13:35:25.460Z,1.10
2018-01-28T13:37:52.676Z,1.50
2018-01-28T13:40:18.941Z,1.80
2018-01-28T13:42:45.903Z,1.87
2018-01-28T13:45:12.396Z,0.90
2018-01-28T13:47:38.647Z,1.90
2018-01-28T13:50:05.752Z,0.73
2018-01-28T13:52:32.033Z,1.00
2018-01-28T13:54:58.286Z,1.10
2018-01-28T13:57:24.556Z,1.03
2018-01-28T13:59:50.958Z,1.23
2018-01-28T14:02:17.361Z,0.90
2018-01-28T14:04:43.984Z,1.40
2018-01-28T14:07:10.669Z,1.27
2018-01-28T14:09:37.051Z,0.97
2018-01-28T14:12:04.302Z,1.27
2018-01-28T14:14:30.658Z,1.20
2018-01-28T14:16:57.013Z,1.20
2018-01-28T14:19:23.511Z,1.37
2018-01-28T14:21:50.079Z,1.20
2018-01-28T14:24:16.367Z,1.10
2018-01-28T14:26:42.635Z,1.70
2018-01-28T14:29:08.922Z,0.97
2018-01-28T14:31:35.634Z,1.10
2018-01-28T14:34:02.635Z,1.00
2018-01-28T14:36:29.077Z,1.00
2018-01-28T14:38:55.444Z,0.90
2018-01-28T14:41:22.754Z,1.23
2018-01-28T14:43:49.161Z,1.47
2018-01-28T14:46:15.386Z,1.13
2018-01-28T14:48:41.735Z,1.40
2018-01-28T14:51:08.038Z,1.40
2018-01-28T14:53:34.473Z,1.83
2018-01-28T14:56:01.014Z,1.00
2018-01-28T14:58:27.414Z,0.87
2018-01-28T15:00:54.391Z,0.90
2018-01-28T15:03:20.632Z,1.00
2018-01-28T15:05:47.153Z,1.00
2018-01-28T15:08:13.689Z,1.30
2018-01-28T15:10:40.258Z,0.90
2018-01-28T15:13:06.447Z,1.10
2018-01-28T15:15:32.838Z,1.10
2018-01-28T15:17:59.904Z,0.97
2018-01-28T15:20:26.277Z,1.00
2018-01-28T15:22:52.946Z,0.90
2018-01-28T15:25:19.968Z,0.87
2018-01-28T15:27:46.327Z,1.10
2018-01-28T15:30:12.619Z,1.00
2018-01-28T15:32:39.163Z,1.43
2018-01-28T15:35:05.857Z,1.00
2018-01-28T15:37:32.318Z,1.60
2018-01-28T15:39:58.608Z,1.30
2018-01-28T15:42:25.005Z,1.50
2018-01-28T15:44:52.853Z,0.80
2018-01-28T15:47:19.201Z,1.40
2018-01-28T15:49:45.553Z,1.00
2018-01-28T15:52:12.669Z,0.97
2018-01-28T15:54:38.970Z,1.53
2018-01-28T15:57:05.177Z,1.00
2018-01-28T15:59:31.653Z,1.13
2018-01-28T16:01:58.183Z,1.33
2018-01-28T16:04:24.602Z,1.20
2018-01-28T16:06:50.996Z,1.33
2018-01-28T16:09:17.184Z,1.17
2018-01-28T16:11:44.258Z,0.97
2018-01-28T16:14:11.360Z,2.87
2018-01-28T16:16:37.641Z,1.37
2018-01-28T16:19:04.038Z,1.30
2018-01-28T16:21:31.291Z,1.30
2018-01-28T16:23:57.802Z,1.30
2018-01-28T16:26:24.052Z,2.00
2018-01-28T16:28:50.670Z,1.70
2018-01-28T16:31:17.136Z,1.40
2018-01-28T16:33:44.302Z,1.20
2018-01-28T16:36:10.589Z,1.40
2018-01-28T16:38:36.859Z,1.50
2018-01-28T16:41:04.077Z,1.77
2018-01-28T16:43:30.386Z,1.37
2018-01-28T16:45:56.671Z,1.80
2018-01-28T16:48:23.065Z,1.80
2018-01-28T16:50:49.363Z,1.33
2018-01-28T16:53:15.806Z,1.80
2018-01-28T16:55:42.322Z,6.40
2018-01-28T16:58:08.666Z,2.70
2018-01-28T17:00:34.859Z,2.83
2018-01-28T17:03:01.325Z,2.70
2018-01-28T17:05:27.770Z,1.80
2018-01-28T17:07:54.029Z,2.07
2018-01-28T17:10:21.037Z,3.00
2018-01-28T17:12:47.296Z,2.40
2018-01-28T17:15:14.286Z,1.70
2018-01-28T17:17:40.638Z,1.90
2018-01-28T17:20:06.800Z,1.50
2018-01-28T17:22:34.013Z,1.80
2018-01-28T17:25:00.632Z,1.60
2018-01-28T17:27:26.810Z,1.57
2018-01-28T17:29:54.126Z,1.27
2018-01-28T17:32:20.499Z,1.30
2018-01-28T17:34:47.513Z,1.50
2018-01-28T17:37:15.180Z,1.00
2018-01-28T17:39:41.644Z,1.73
2018-01-28T17:42:08.477Z,1.67
2018-01-28T17:44:35.554Z,1.87
2018-01-28T17:47:02.038Z,1.47
2018-01-28T17:49:28.746Z,1.63
2018-01-28T17:51:55.035Z,1.10
2018-01-28T17:54:21.419Z,1.17
2018-01-28T17:56:47.738Z,1.33
2018-01-28T17:59:13.922Z,1.10
2018-01-28T18:01:40.460Z,1.33
2018-01-28T18:04:06.750Z,1.27
2018-01-28T18:06:33.161Z,0.97
2018-01-28T18:08:59.602Z,1.07
2018-01-28T18:11:26.030Z,1.30
2018-01-28T18:13:52.273Z,1.20
2018-01-28T18:16:18.768Z,1.23
2018-01-28T18:18:45.113Z,1.30
2018-01-28T18:21:11.307Z,1.53
2018-01-28T18:23:37.591Z,1.20
2018-01-28T18:26:03.843Z,1.07
2018-01-28T18:28:30.851Z,1.20
2018-01-28T18:30:58.736Z,1.20
2018-01-28T18:33:26.269Z,1.60
2018-01-28T18:35:52.547Z,1.60
2018-01-28T18:38:18.922Z,1.27
2018-01-28T18:40:45.364Z,1.20
2018-01-28T18:43:12.328Z,1.20
2018-01-28T18:45:39.603Z,1.50
2018-01-28T18:48:06.015Z,1.10
2018-01-28T18:50:33.033Z,1.73
2018-01-28T18:52:59.510Z,1.37
2018-01-28T18:55:26.667Z,1.50
2018-01-28T18:57:52.868Z,1.43
2018-01-28T19:00:20.091Z,2.20
2018-01-28T19:02:46.536Z,1.70
2018-01-28T19:05:13.002Z,1.50
2018-01-28T19:07:39.319Z,1.80
2018-01-28T19:10:06.599Z,1.40
2018-01-28T19:12:33.070Z,1.20
2018-01-28T19:15:00.122Z,1.40
2018-01-28T19:17:26.539Z,2.37
2018-01-28T19:19:53.029Z,1.80
2018-01-28T19:22:19.294Z,4.73
2018-01-28T19:24:45.587Z,6.13
2018-01-28T19:27:12.898Z,4.83
2018-01-28T19:29:39.149Z,7.40
2018-01-28T19:32:06.059Z,11.60
2018-01-28T19:34:32.302Z,2.57
2018-01-28T19:36:58.824Z,1.53
2018-01-28T19:39:25.143Z,1.43
2018-01-28T19:41:51.405Z,1.83
2018-01-28T19:44:18.491Z,1.50
2018-01-28T19:49:38.229Z,1.40
2018-01-28T19:52:05.402Z,1.30
2018-01-28T19:54:32.404Z,1.43
2018-01-28T19:56:59.754Z,1.57
2018-01-28T19:59:26.092Z,1.50
2018-01-28T20:01:52.336Z,1.33
2018-01-28T20:04:19.291Z,1.60
2018-01-28T20:06:46.559Z,1.60
2018-01-28T20:09:13.093Z,1.90
2018-01-28T20:11:39.316Z,1.20
2018-01-28T20:14:06.447Z,1.60
2018-01-28T20:16:33.557Z,1.27
2018-01-28T20:19:00.099Z,1.57
2018-01-28T20:21:26.639Z,1.40
2018-01-28T20:23:53.267Z,1.50
2018-01-28T20:26:19.730Z,1.37
2018-01-28T20:28:46.965Z,1.30
2018-01-28T20:31:13.600Z,1.30
2018-01-28T20:33:39.806Z,1.53
2018-01-28T20:36:06.083Z,1.53
2018-01-28T20:38:33.490Z,1.40
2018-01-28T20:41:00.032Z,1.60
2018-01-28T20:43:26.496Z,1.33
2018-01-28T20:45:52.740Z,1.53
2018-01-28T20:48:19.799Z,1.37
2018-01-28T20:50:46.194Z,1.67
2018-01-28T20:53:12.422Z,1.23
2018-01-28T20:58:11.934Z,1.60
2018-01-28T21:00:38.418Z,1.20
2018-01-28T21:03:04.897Z,1.50
2018-01-28T21:05:31.573Z,1.57
2018-01-28T21:07:58.002Z,1.90
2018-01-28T21:10:24.206Z,1.50
2018-01-28T21:12:51.320Z,1.40
2018-01-28T21:15:17.649Z,1.90
2018-01-28T21:17:43.940Z,1.57
2018-01-28T21:20:10.401Z,1.60
2018-01-28T21:22:36.642Z,1.87
2018-01-28T21:25:03.368Z,1.53
2018-01-28T21:27:29.809Z,1.53
2018-01-28T21:29:56.117Z,1.40
2018-01-28T21:32:22.454Z,1.30
2018-01-28T21:34:49.061Z,1.37
2018-01-28T21:37:15.327Z,1.57
2018-01-28T21:39:41.646Z,1.40
2018-01-28T21:42:08.607Z,1.47
2018-01-28T21:44:35.761Z,1.33
2018-01-28T21:47:02.019Z,1.10
2018-01-28T21:49:29.120Z,1.63
2018-01-28T21:51:55.670Z,1.57
2018-01-28T21:54:21.872Z,1.20
2018-01-28T21:56:48.095Z,1.33
2018-01-28T21:59:14.407Z,1.93
2018-01-28T22:01:41.122Z,1.63
2018-01-28T22:04:08.158Z,1.40
2018-01-28T22:06:35.237Z,1.40
2018-01-28T22:09:01.703Z,1.40
2018-01-28T22:11:28.190Z,1.17
2018-01-28T22:13:54.520Z,1.80
2018-01-28T22:16:21.564Z,2.53
2018-01-28T22:18:48.601Z,1.60
2018-01-28T22:21:15.612Z,0.90
2018-01-28T22:23:41.882Z,1.40
2018-01-28T22:26:08.797Z,1.30
2018-01-28T22:28:35.066Z,0.90
2018-01-28T22:31:01.288Z,1.50
2018-01-28T22:33:27.609Z,1.10
2018-01-28T22:35:54.641Z,1.20
2018-01-28T22:38:21.888Z,1.10
2018-01-28T22:40:48.271Z,1.40
2018-01-28T22:43:14.536Z,1.47
2018-01-28T22:45:41.982Z,1.30
2018-01-28T22:48:08.300Z,1.20
2018-01-28T22:50:34.536Z,0.90
2018-01-28T22:53:02.234Z,0.97
2018-01-28T22:55:29.243Z,0.50
2018-01-28T22:57:55.581Z,0.90
2018-01-28T23:00:22.748Z,0.70
2018-01-28T23:02:49.984Z,0.77
2018-01-28T23:05:16.358Z,0.60
2018-01-28T23:07:42.766Z,0.97
2018-01-28T23:10:09.741Z,1.00
2018-01-28T23:12:36.165Z,0.43
2018-01-28T23:15:02.542Z,0.70
2018-01-28T23:17:30.288Z,0.70
2018-01-28T23:19:56.632Z,0.60
2018-01-28T23:22:23.781Z,0.50
2018-01-28T23:24:51.463Z,0.53
2018-01-28T23:27:18.719Z,0.53
2018-01-28T23:29:45.935Z,0.67
2018-01-28T23:32:12.611Z,0.50
2018-01-28T23:34:39.514Z,0.33
2018-01-28T23:37:05.845Z,0.50
2018-01-28T23:39:32.273Z,0.50
2018-01-28T23:41:58.440Z,0.63
2018-01-28T23:44:25.597Z,0.40
2018-01-28T23:46:51.946Z,0.50
2018-01-28T23:49:18.260Z,0.57
2018-01-28T23:51:51.473Z,0.50
2018-01-28T23:54:17.690Z,0.50
2018-01-28T23:56:43.891Z,0.50
2018-01-28T23:59:11.158Z,0.60
